Estación Meteorológica Peña el Pijo (Robertgarden) [ 01/30/23 15:33:29 CET ]

Fecha Hora Presion(HPa) Temp (°C) Humedad % Rocio (°C) Viento ( m/s) Direccion Lluvia 1Hora(mm) Lluvia 24H(mm) LLuvia Total(mm)
2012-Mar-03 01:01:14 1017.500 5.3 80 2.1         153.32
2012-Mar-03 02:03:11 1017.500 5.8 76 1.9         153.32
2012-Mar-03 03:01:14 1017.500 5.4 81 2.4         153.32
2012-Mar-03 04:01:13 1017.400 5.7 80 2.5         153.32
2012-Mar-03 05:01:17 1017.000 5.3 80 2.1         153.32
2012-Mar-03 06:01:13 1017.500 5.4 81 2.4         153.32
2012-Mar-03 07:01:13 1018.000 5.7 80 2.5         153.32
2012-Mar-03 08:01:13 1018.400 4.6 82 1.8         153.32
2012-Mar-03 09:01:18 1019.200 5.2 83 2.5         153.32
2012-Mar-03 10:01:13 1019.700 8.7 74 4.3         153.32
2012-Mar-03 11:01:12 1019.700 12.4 61 5.1         153.32
2012-Mar-03 12:01:12 1019.900 11.9 58 3.9         153.32
2012-Mar-03 13:01:14 1019.700 13.1 55 4.2         153.32
2012-Mar-03 14:01:14 1019.100 14.9 48 4.0         153.32
2012-Mar-03 15:01:14 1018.600 14.6 47 3.4         153.32
2012-Mar-03 16:01:12 1018.100 14.9 43 2.4         153.32
2012-Mar-03 17:01:17 1018.200 13.0 47 1.9         153.32
2012-Mar-03 18:01:16 1018.200 11.6 50 1.5         153.32
2012-Mar-03 19:01:14 1018.600 9.5 57 1.4         153.32
2012-Mar-03 20:01:18 1019.100 6.6 66 0.7         153.32
2012-Mar-03 21:01:17 1019.400 4.8 75 0.7         153.32
2012-Mar-03 22:01:13 1019.800 3.6 77 -0.1         153.32
2012-Mar-03 23:01:14 1020.200 2.9 82 0.1         153.32

Temperatura Máxima:14°    Temperatura Mínima:
Presión Máxima:1020.200 Hpa    Presión Mínima:1017.000 Hpa


Volver